createdAt,value
2023-04-07T00:00:06.464Z,16.50
2023-04-07T00:02:34.362Z,21.40
2023-04-07T00:05:03.082Z,17.83
2023-04-07T00:07:31.818Z,21.30
2023-04-07T00:10:00.512Z,17.95
2023-04-07T00:12:28.426Z,19.50
2023-04-07T00:14:57.650Z,20.90
2023-04-07T00:17:25.519Z,21.33
2023-04-07T00:19:53.368Z,18.20
2023-04-07T00:22:21.200Z,19.77
2023-04-07T00:24:49.059Z,16.83
2023-04-07T00:27:16.954Z,20.60
2023-04-07T00:29:46.512Z,16.50
2023-04-07T00:32:15.702Z,15.80
2023-04-07T00:34:43.597Z,18.48
2023-04-07T00:37:11.465Z,26.00
2023-04-07T00:39:39.414Z,15.65
2023-04-07T00:42:07.947Z,16.10
2023-04-07T00:44:35.886Z,19.08
2023-04-07T00:47:03.781Z,17.80
2023-04-07T00:49:33.092Z,18.70
2023-04-07T00:52:01.168Z,16.13
2023-04-07T00:54:31.187Z,15.13
2023-04-07T00:56:59.190Z,14.80
2023-04-07T00:59:29.184Z,18.02
2023-04-07T01:02:03.257Z,17.42
2023-04-07T01:04:36.284Z,16.27
2023-04-07T01:07:09.606Z,18.75
2023-04-07T01:09:44.322Z,16.77
2023-04-07T01:12:22.125Z,17.40
2023-04-07T01:14:55.462Z,17.55
2023-04-07T01:17:27.172Z,16.52
2023-04-07T01:20:00.246Z,17.95
2023-04-07T01:22:33.984Z,16.30
2023-04-07T01:25:30.309Z,16.30
2023-04-07T01:28:14.709Z,17.75
2023-04-07T01:30:45.860Z,20.58
2023-04-07T01:33:15.427Z,16.58
2023-04-07T01:35:44.728Z,17.23
2023-04-07T01:38:15.005Z,18.13
2023-04-07T01:40:43.638Z,19.25
2023-04-07T01:43:12.833Z,16.08
2023-04-07T01:45:41.857Z,16.33
2023-04-07T01:48:11.903Z,16.48
2023-04-07T01:50:40.025Z,15.65
2023-04-07T01:53:09.092Z,15.43
2023-04-07T01:55:37.036Z,16.85
2023-04-07T01:58:08.398Z,19.55
2023-04-07T02:00:36.255Z,16.00
2023-04-07T02:03:09.844Z,16.88
2023-04-07T02:05:40.766Z,18.13
2023-04-07T02:08:10.963Z,14.85
2023-04-07T02:10:39.906Z,15.50
2023-04-07T02:13:10.024Z,15.52
2023-04-07T02:15:38.623Z,17.88
2023-04-07T02:18:10.585Z,17.88
2023-04-07T02:20:40.838Z,17.40
2023-04-07T02:23:09.413Z,16.35
2023-04-07T02:25:38.786Z,15.27
2023-04-07T02:28:07.308Z,14.43
2023-04-07T02:30:36.371Z,19.67
2023-04-07T02:33:04.321Z,17.60
2023-04-07T02:35:32.278Z,16.83
2023-04-07T02:38:01.512Z,17.92
2023-04-07T02:40:29.591Z,14.82
2023-04-07T02:42:57.429Z,18.02
2023-04-07T02:45:25.696Z,18.08
2023-04-07T02:47:53.594Z,20.55
2023-04-07T02:50:21.543Z,19.65
2023-04-07T02:52:49.423Z,18.67
2023-04-07T02:55:18.899Z,18.20
2023-04-07T02:57:46.828Z,20.10
2023-04-07T03:00:16.900Z,23.30
2023-04-07T03:02:44.936Z,17.17
2023-04-07T03:05:13.056Z,18.05
2023-04-07T03:07:41.475Z,19.60
2023-04-07T03:10:10.117Z,23.67
2023-04-07T03:12:39.391Z,21.52
2023-04-07T03:15:08.345Z,20.90
2023-04-07T03:17:36.339Z,19.00
2023-04-07T03:20:04.490Z,20.70
2023-04-07T03:22:32.330Z,18.40
2023-04-07T03:25:00.925Z,19.75
2023-04-07T03:27:28.744Z,19.50
2023-04-07T03:29:58.583Z,20.48
2023-04-07T03:32:26.474Z,19.90
2023-04-07T03:34:54.338Z,24.10
2023-04-07T03:37:22.164Z,27.63
2023-04-07T03:39:50.972Z,20.95
2023-04-07T03:42:20.020Z,17.70
2023-04-07T03:44:47.847Z,22.23
2023-04-07T03:47:17.075Z,22.67
2023-04-07T03:49:44.916Z,22.48
2023-04-07T03:52:12.753Z,20.98
2023-04-07T03:54:40.609Z,18.05
2023-04-07T03:57:08.492Z,19.95
2023-04-07T03:59:36.842Z,18.10
2023-04-07T04:02:04.947Z,22.60
2023-04-07T04:04:34.251Z,21.15
2023-04-07T04:07:02.082Z,19.65
2023-04-07T04:09:29.937Z,21.38
2023-04-07T04:11:57.774Z,19.77
2023-04-07T04:14:26.012Z,18.00
2023-04-07T04:16:54.320Z,18.88
2023-04-07T04:19:22.175Z,19.80
2023-04-07T04:21:51.354Z,16.55
2023-04-07T04:24:19.238Z,21.88
2023-04-07T04:26:47.078Z,20.45
2023-04-07T04:29:14.900Z,18.23
2023-04-07T04:31:42.788Z,19.85
2023-04-07T04:34:10.885Z,23.30
2023-04-07T04:36:40.457Z,17.65
2023-04-07T04:39:09.757Z,18.77
2023-04-07T04:41:37.729Z,18.77
2023-04-07T04:44:05.805Z,20.75
2023-04-07T04:46:34.855Z,18.23
2023-04-07T04:49:02.966Z,20.52
2023-04-07T04:51:30.822Z,20.48
2023-04-07T04:53:58.661Z,21.10
2023-04-07T04:56:27.844Z,20.73
2023-04-07T04:58:55.800Z,20.17
2023-04-07T05:01:23.605Z,19.83
2023-04-07T05:03:51.728Z,18.70
2023-04-07T05:06:19.727Z,16.20
2023-04-07T05:08:47.617Z,19.60
2023-04-07T05:11:15.537Z,22.77
2023-04-07T05:13:44.697Z,18.27
2023-04-07T05:16:12.623Z,21.27
2023-04-07T05:18:40.814Z,18.90
2023-04-07T05:21:08.736Z,21.67
2023-04-07T05:23:36.806Z,23.25
2023-04-07T05:26:04.684Z,21.60
2023-04-07T05:28:32.605Z,19.40
2023-04-07T05:31:02.145Z,19.10
2023-04-07T05:33:29.978Z,20.48
2023-04-07T05:35:57.933Z,17.75
2023-04-07T05:38:25.835Z,16.45
2023-04-07T05:40:53.732Z,19.80
2023-04-07T05:43:21.669Z,16.73
2023-04-07T05:45:49.557Z,19.48
2023-04-07T05:48:18.850Z,15.75
2023-04-07T05:50:46.673Z,18.80
2023-04-07T05:53:14.564Z,21.20
2023-04-07T05:55:44.071Z,15.60
2023-04-07T05:58:11.921Z,15.00
2023-04-07T06:00:41.003Z,14.90
2023-04-07T06:03:08.991Z,21.13
2023-04-07T06:05:43.236Z,18.33
2023-04-07T06:08:11.288Z,20.50
2023-04-07T06:10:41.202Z,18.52
2023-04-07T06:13:09.181Z,20.65
2023-04-07T06:15:37.066Z,18.88
2023-04-07T06:18:05.059Z,20.10
2023-04-07T06:20:32.950Z,17.23
2023-04-07T06:23:02.142Z,15.68
2023-04-07T06:25:29.977Z,15.77
2023-04-07T06:27:57.918Z,15.55
2023-04-07T06:30:25.903Z,20.70
2023-04-07T06:32:53.813Z,16.52
2023-04-07T06:35:21.796Z,16.88
2023-04-07T06:37:49.742Z,15.65
2023-04-07T06:40:19.086Z,16.25
2023-04-07T06:42:46.901Z,14.32
2023-04-07T06:45:14.844Z,21.55
2023-04-07T06:47:42.719Z,12.30
2023-04-07T06:50:10.935Z,13.65
2023-04-07T06:52:38.779Z,14.68
2023-04-07T06:55:07.680Z,14.00
2023-04-07T06:57:36.986Z,12.90
2023-04-07T07:00:07.871Z,12.52
2023-04-07T07:02:36.205Z,13.05
2023-04-07T07:05:04.751Z,14.70
2023-04-07T07:07:32.653Z,15.73
2023-04-07T07:10:00.470Z,19.70
2023-04-07T07:12:28.331Z,12.93
2023-04-07T07:14:57.745Z,11.45
2023-04-07T07:17:25.586Z,13.40
2023-04-07T07:19:53.466Z,12.90
2023-04-07T07:22:21.315Z,10.85
2023-04-07T07:24:49.154Z,12.63
2023-04-07T07:27:16.986Z,12.45
2023-04-07T07:29:44.823Z,10.20
2023-04-07T07:32:14.051Z,7.43
2023-04-07T07:34:41.930Z,9.85
2023-04-07T07:37:09.848Z,10.82
2023-04-07T07:39:37.784Z,8.23
2023-04-07T07:42:05.702Z,5.78
2023-04-07T07:44:33.573Z,7.20
2023-04-07T07:47:02.246Z,9.18
2023-04-07T07:49:31.991Z,6.88
2023-04-07T07:52:00.888Z,7.28
2023-04-07T07:54:28.885Z,8.63
2023-04-07T07:56:57.426Z,5.15
2023-04-07T07:59:25.338Z,7.32
2023-04-07T08:01:53.234Z,6.05
2023-04-07T08:04:23.399Z,5.43
2023-04-07T08:06:53.272Z,6.13
2023-04-07T08:09:21.350Z,8.32
2023-04-07T08:11:49.493Z,7.10
2023-04-07T08:14:17.539Z,7.68
2023-04-07T08:16:45.708Z,7.18
2023-04-07T08:19:14.478Z,8.90
2023-04-07T08:21:42.453Z,6.65
2023-04-07T08:24:11.852Z,10.02
2023-04-07T08:26:39.818Z,4.95
2023-04-07T08:29:07.730Z,8.52
2023-04-07T08:31:35.757Z,4.63
2023-04-07T08:34:03.661Z,7.53
2023-04-07T08:36:32.015Z,5.47
2023-04-07T08:39:01.915Z,9.82
2023-04-07T08:41:37.670Z,11.18
2023-04-07T08:44:06.921Z,6.28
2023-04-07T08:46:35.506Z,5.43
2023-04-07T08:49:04.533Z,6.20
2023-04-07T08:51:33.911Z,5.05
2023-04-07T08:54:06.855Z,5.50
2023-04-07T08:56:37.662Z,5.60
2023-04-07T08:59:08.014Z,11.82
2023-04-07T09:01:37.749Z,6.10
2023-04-07T09:04:07.254Z,5.18
2023-04-07T09:06:35.572Z,6.95
2023-04-07T09:09:05.694Z,7.93
2023-04-07T09:11:38.110Z,4.95
2023-04-07T09:14:06.386Z,8.48
2023-04-07T09:16:34.485Z,8.80
2023-04-07T09:19:02.416Z,7.15
2023-04-07T09:21:48.784Z,6.95
2023-04-07T09:24:24.486Z,6.80
2023-04-07T09:27:10.480Z,10.20
2023-04-07T09:29:38.767Z,6.32
2023-04-07T09:32:06.830Z,3.72
2023-04-07T09:34:36.144Z,5.30
2023-04-07T09:37:04.668Z,5.28
2023-04-07T09:39:33.278Z,5.47
2023-04-07T09:42:08.103Z,6.95
2023-04-07T09:44:41.551Z,3.67
2023-04-07T09:47:09.569Z,6.45
2023-04-07T09:49:52.388Z,9.48
2023-04-07T09:52:21.738Z,6.40
2023-04-07T09:54:51.230Z,7.28
2023-04-07T09:57:22.047Z,5.43
2023-04-07T09:59:50.446Z,6.00
2023-04-07T10:02:18.643Z,9.95
2023-04-07T10:04:46.861Z,6.10
2023-04-07T10:07:16.602Z,8.45
2023-04-07T10:09:44.873Z,9.63
2023-04-07T10:12:13.424Z,7.35
2023-04-07T10:14:46.895Z,7.93
2023-04-07T10:17:19.201Z,4.15
2023-04-07T10:19:49.160Z,6.40
2023-04-07T10:22:18.078Z,8.15
2023-04-07T10:24:55.161Z,6.68
2023-04-07T10:27:32.455Z,8.90
2023-04-07T10:30:02.344Z,7.33
2023-04-07T10:32:30.475Z,10.68
2023-04-07T10:35:01.466Z,8.13
2023-04-07T10:37:29.617Z,9.52
2023-04-07T10:40:28.817Z,8.60
2023-04-07T10:42:57.716Z,8.63
2023-04-07T10:45:59.201Z,8.90
2023-04-07T10:48:32.805Z,6.20
2023-04-07T10:51:21.760Z,7.18
2023-04-07T10:54:22.379Z,7.28
2023-04-07T10:57:13.354Z,8.88
2023-04-07T11:00:17.304Z,11.68
2023-04-07T11:02:46.762Z,10.48
2023-04-07T11:05:22.781Z,11.13
2023-04-07T11:07:54.941Z,13.10
2023-04-07T11:10:23.279Z,16.58
2023-04-07T11:13:09.495Z,9.90
2023-04-07T11:15:40.393Z,6.13
2023-04-07T11:18:15.926Z,7.75
2023-04-07T11:20:46.736Z,17.10
2023-04-07T11:23:15.511Z,14.63
2023-04-07T11:25:45.292Z,9.13
2023-04-07T11:28:14.197Z,22.73
2023-04-07T11:30:49.646Z,15.10
2023-04-07T11:33:21.030Z,15.48
2023-04-07T11:35:55.498Z,13.82
2023-04-07T11:38:25.217Z,15.23
2023-04-07T11:40:53.268Z,18.65
2023-04-07T11:43:22.767Z,12.55
2023-04-07T11:46:08.086Z,19.50
2023-04-07T11:48:38.772Z,11.35
2023-04-07T11:51:07.731Z,10.70
2023-04-07T11:53:38.209Z,17.05
2023-04-07T11:56:09.698Z,18.42
2023-04-07T11:58:38.643Z,14.15
2023-04-07T12:01:08.920Z,14.32
2023-04-07T12:03:39.345Z,14.32
2023-04-07T12:06:07.354Z,15.80
2023-04-07T12:08:39.780Z,15.60
2023-04-07T12:11:08.364Z,15.95
2023-04-07T12:13:36.394Z,7.88
2023-04-07T12:16:04.424Z,9.07
2023-04-07T12:18:32.527Z,12.73
2023-04-07T12:21:01.875Z,6.40
2023-04-07T12:23:29.744Z,11.40
2023-04-07T12:25:57.552Z,5.07
2023-04-07T12:28:25.442Z,6.68
2023-04-07T12:30:53.543Z,6.85
2023-04-07T12:33:21.815Z,6.05
2023-04-07T12:35:50.387Z,6.82
2023-04-07T12:38:19.611Z,4.65
2023-04-07T12:40:47.567Z,3.78
2023-04-07T12:43:15.406Z,9.10
2023-04-07T12:45:43.292Z,9.77
2023-04-07T12:48:11.256Z,9.95
2023-04-07T12:50:39.145Z,7.47
2023-04-07T12:53:06.976Z,12.27
2023-04-07T12:55:36.610Z,20.17
2023-04-07T12:58:04.693Z,7.55
2023-04-07T13:00:32.668Z,9.80
2023-04-07T13:03:00.746Z,7.53
2023-04-07T13:05:30.120Z,8.65
2023-04-07T13:07:57.979Z,8.45
2023-04-07T13:10:26.020Z,5.38
2023-04-07T13:12:55.284Z,8.07
2023-04-07T13:15:23.228Z,8.30
2023-04-07T13:17:51.222Z,4.22
2023-04-07T13:20:20.682Z,5.25
2023-04-07T13:22:54.038Z,7.47
2023-04-07T13:25:31.554Z,5.75
2023-04-07T13:28:00.802Z,4.88
2023-04-07T13:30:28.749Z,4.45
2023-04-07T13:32:57.106Z,6.63
2023-04-07T13:35:25.094Z,8.38
2023-04-07T13:37:53.024Z,4.63
2023-04-07T13:40:21.063Z,7.43
2023-04-07T13:42:48.921Z,6.82
2023-04-07T13:45:18.098Z,8.43
2023-04-07T13:47:46.218Z,9.18
2023-04-07T13:50:14.060Z,8.63
2023-04-07T13:52:41.927Z,7.32
2023-04-07T13:55:10.605Z,9.50
2023-04-07T13:57:38.483Z,5.60
2023-04-07T14:00:08.196Z,8.43
2023-04-07T14:02:37.518Z,7.85
2023-04-07T14:05:05.876Z,7.30
2023-04-07T14:07:34.489Z,10.52
2023-04-07T14:10:02.351Z,9.95
2023-04-07T14:12:30.174Z,10.75
2023-04-07T14:14:58.094Z,10.43
2023-04-07T14:17:26.160Z,10.38
2023-04-07T14:19:55.646Z,6.50
2023-04-07T14:22:23.572Z,12.20
2023-04-07T14:24:51.513Z,10.55
2023-04-07T14:27:21.066Z,8.57
2023-04-07T14:29:49.293Z,11.02
2023-04-07T14:32:17.550Z,5.45
2023-04-07T14:34:45.398Z,9.80
2023-04-07T14:37:16.114Z,9.23
2023-04-07T14:39:55.261Z,8.73
2023-04-07T14:42:30.666Z,11.27
2023-04-07T14:44:58.627Z,13.90
2023-04-07T14:47:26.622Z,10.93
2023-04-07T14:49:54.593Z,15.38
2023-04-07T14:52:24.471Z,11.43
2023-04-07T14:54:52.387Z,11.10
2023-04-07T14:57:20.266Z,10.32
2023-04-07T14:59:48.565Z,9.02
2023-04-07T15:02:17.024Z,12.15
2023-04-07T15:04:45.110Z,9.35
2023-04-07T15:07:13.320Z,8.10
2023-04-07T15:09:42.477Z,8.52
2023-04-07T15:12:10.590Z,9.48
2023-04-07T15:14:38.467Z,14.90
2023-04-07T15:17:06.365Z,11.38
2023-04-07T15:19:34.398Z,10.20
2023-04-07T15:22:02.506Z,12.32
2023-04-07T15:24:30.472Z,12.60
2023-04-07T15:26:59.801Z,11.63
2023-04-07T15:29:27.638Z,11.05
2023-04-07T15:31:55.515Z,12.18
2023-04-07T15:34:23.374Z,12.25
2023-04-07T15:36:51.539Z,14.75
2023-04-07T15:39:19.381Z,15.13
2023-04-07T15:41:47.180Z,15.05
2023-04-07T15:44:19.659Z,9.43
2023-04-07T15:46:47.724Z,8.18
2023-04-07T15:49:20.028Z,12.23
2023-04-07T15:51:47.868Z,11.57
2023-04-07T15:54:16.132Z,12.65
2023-04-07T15:56:43.978Z,9.85
2023-04-07T15:59:11.807Z,10.05
2023-04-07T16:01:41.068Z,10.35
2023-04-07T16:04:09.156Z,9.80
2023-04-07T16:06:37.193Z,10.25
2023-04-07T16:09:05.662Z,11.25
2023-04-07T16:11:33.599Z,11.80
2023-04-07T16:14:01.484Z,12.02
2023-04-07T16:16:29.372Z,9.95
2023-04-07T16:18:58.600Z,10.50
2023-04-07T16:21:27.477Z,12.55
2023-04-07T16:23:55.960Z,10.60
2023-04-07T16:26:23.835Z,14.68
2023-04-07T16:28:51.734Z,11.45
2023-04-07T16:31:19.749Z,11.70
2023-04-07T16:33:47.862Z,14.05
2023-04-07T16:36:17.236Z,11.48
2023-04-07T16:38:45.253Z,12.85
2023-04-07T16:41:13.078Z,11.15
2023-04-07T16:43:40.933Z,10.15
2023-04-07T16:46:08.844Z,12.00
2023-04-07T16:48:36.676Z,11.70
2023-04-07T16:51:04.518Z,10.68
2023-04-07T16:53:33.696Z,8.27
2023-04-07T16:56:01.544Z,11.30
2023-04-07T16:58:29.403Z,14.77
2023-04-07T17:00:57.299Z,7.88
2023-04-07T17:03:25.436Z,9.43
2023-04-07T17:05:53.747Z,12.90
2023-04-07T17:08:21.589Z,11.32
2023-04-07T17:10:50.738Z,9.95
2023-04-07T17:13:18.609Z,10.93
2023-04-07T17:15:46.626Z,14.18
2023-04-07T17:18:14.543Z,11.40
2023-04-07T17:20:42.434Z,11.57
2023-04-07T17:23:10.333Z,7.95
2023-04-07T17:25:38.199Z,10.68
2023-04-07T17:28:07.654Z,19.80
2023-04-07T17:30:36.819Z,8.38
2023-04-07T17:33:04.986Z,10.88
2023-04-07T17:35:32.909Z,13.52
2023-04-07T17:38:02.610Z,12.68
2023-04-07T17:40:30.627Z,12.68
2023-04-07T17:43:00.004Z,12.75
2023-04-07T17:45:29.372Z,11.25
2023-04-07T17:47:57.518Z,7.43
2023-04-07T17:50:25.488Z,6.13
2023-04-07T17:52:53.320Z,8.23
2023-04-07T17:55:21.165Z,6.50
2023-04-07T17:57:50.568Z,12.10
2023-04-07T18:00:19.043Z,12.63
2023-04-07T18:02:48.427Z,16.08
2023-04-07T18:05:16.378Z,11.10
2023-04-07T18:07:44.202Z,10.55
2023-04-07T18:10:12.318Z,6.13
2023-04-07T18:12:40.730Z,8.07
2023-04-07T18:15:09.644Z,4.65
2023-04-07T18:17:37.572Z,3.90
2023-04-07T18:20:07.842Z,4.50
2023-04-07T18:22:37.053Z,5.82
2023-04-07T18:25:06.437Z,7.65
2023-04-07T18:27:34.276Z,6.70
2023-04-07T18:30:02.148Z,4.47
2023-04-07T18:32:30.037Z,4.75
2023-04-07T18:34:57.895Z,9.60
2023-04-07T18:37:27.197Z,6.00
2023-04-07T18:39:55.036Z,5.00
2023-04-07T18:42:23.194Z,5.18
2023-04-07T18:44:51.462Z,4.57
2023-04-07T18:47:19.387Z,3.75
2023-04-07T18:49:47.264Z,8.27
2023-04-07T18:52:15.245Z,5.95
2023-04-07T18:54:45.494Z,5.35
2023-04-07T18:57:13.379Z,8.25
2023-04-07T18:59:41.599Z,8.70
2023-04-07T19:02:09.500Z,9.50
2023-04-07T19:04:37.400Z,6.32
2023-04-07T19:07:05.225Z,8.93
2023-04-07T19:09:33.259Z,11.13
2023-04-07T19:12:02.486Z,17.17
2023-04-07T19:14:30.433Z,12.80
2023-04-07T19:16:58.432Z,11.27
2023-04-07T19:19:27.818Z,11.32
2023-04-07T19:21:55.689Z,13.20
2023-04-07T19:24:23.541Z,11.40
2023-04-07T19:26:52.623Z,6.80
2023-04-07T19:29:21.918Z,6.78
2023-04-07T19:31:51.232Z,5.22
2023-04-07T19:34:19.734Z,7.95
2023-04-07T19:36:47.572Z,5.05
2023-04-07T19:39:16.048Z,8.80
2023-04-07T19:41:43.852Z,6.10
2023-04-07T19:44:11.859Z,6.80
2023-04-07T19:46:41.048Z,6.25
2023-04-07T19:49:08.880Z,4.72
2023-04-07T19:51:36.772Z,7.50
2023-04-07T19:54:04.710Z,7.60
2023-04-07T19:56:32.517Z,6.80
2023-04-07T19:59:00.418Z,6.50
2023-04-07T20:01:28.384Z,4.63
2023-04-07T20:03:57.780Z,5.93
2023-04-07T20:06:27.177Z,4.72
2023-04-07T20:08:55.569Z,7.72
2023-04-07T20:11:23.452Z,6.68
2023-04-07T20:13:51.286Z,8.20
2023-04-07T20:16:19.206Z,6.63
2023-04-07T20:18:47.986Z,7.22
2023-04-07T20:21:17.309Z,8.20
2023-04-07T20:23:45.133Z,6.35
2023-04-07T20:26:12.962Z,6.63
2023-04-07T20:28:40.940Z,7.40
2023-04-07T20:31:08.958Z,8.30
2023-04-07T20:33:37.121Z,8.55
2023-04-07T20:36:05.276Z,7.30
2023-04-07T20:38:34.775Z,8.45
2023-04-07T20:41:02.605Z,9.02
2023-04-07T20:43:30.726Z,9.45
2023-04-07T20:45:58.959Z,9.68
2023-04-07T20:48:26.829Z,8.75
2023-04-07T20:50:54.729Z,9.38
2023-04-07T20:53:23.593Z,13.13
2023-04-07T20:55:52.743Z,11.70
2023-04-07T20:58:20.762Z,10.23
2023-04-07T21:00:48.698Z,9.43
2023-04-07T21:03:16.692Z,11.23
2023-04-07T21:05:45.710Z,13.82
2023-04-07T21:08:14.651Z,11.90
2023-04-07T21:10:42.718Z,12.02
2023-04-07T21:13:11.948Z,11.60
2023-04-07T21:15:42.189Z,13.57
2023-04-07T21:18:10.231Z,13.55
2023-04-07T21:20:38.261Z,14.48
2023-04-07T21:23:07.601Z,14.98
2023-04-07T21:25:37.389Z,14.70
2023-04-07T21:28:05.581Z,12.88
2023-04-07T21:30:34.757Z,13.57
2023-04-07T21:33:02.895Z,10.77
2023-04-07T21:35:30.917Z,14.25
2023-04-07T21:37:58.879Z,13.52
2023-04-07T21:40:27.069Z,15.00
2023-04-07T21:42:54.918Z,13.23
2023-04-07T21:45:23.103Z,14.80
2023-04-07T21:47:52.392Z,16.30
2023-04-07T21:50:20.289Z,18.45
2023-04-07T21:52:50.658Z,15.80
2023-04-07T21:55:18.880Z,16.48
2023-04-07T21:57:47.150Z,19.33
2023-04-07T22:00:16.420Z,20.65
2023-04-07T22:02:45.496Z,16.55
2023-04-07T22:05:15.720Z,19.10
2023-04-07T22:07:45.288Z,15.80
2023-04-07T22:10:13.336Z,20.83
2023-04-07T22:12:41.332Z,18.83
2023-04-07T22:15:10.617Z,23.55
2023-04-07T22:17:39.831Z,21.58
2023-04-07T22:20:10.213Z,20.17
2023-04-07T22:22:40.315Z,26.88
2023-04-07T22:25:08.790Z,22.45
2023-04-07T22:27:36.641Z,22.05
2023-04-07T22:30:05.273Z,23.98
2023-04-07T22:32:33.154Z,25.45
2023-04-07T22:35:01.223Z,24.50
2023-04-07T22:37:29.075Z,23.15
2023-04-07T22:39:58.253Z,26.05
2023-04-07T22:42:26.109Z,26.02
2023-04-07T22:44:53.985Z,26.35
2023-04-07T22:47:22.256Z,22.95
2023-04-07T22:49:50.100Z,24.02
2023-04-07T22:52:17.977Z,26.98
2023-04-07T22:54:45.851Z,25.42
2023-04-07T22:57:15.383Z,25.77
2023-04-07T22:59:43.243Z,25.23
2023-04-07T23:02:11.210Z,29.25
2023-04-07T23:04:39.115Z,29.20
2023-04-07T23:07:06.989Z,27.77
2023-04-07T23:09:34.845Z,28.40
2023-04-07T23:12:02.678Z,26.00
2023-04-07T23:14:32.089Z,29.42
2023-04-07T23:17:00.909Z,31.17
2023-04-07T23:19:28.869Z,28.95
2023-04-07T23:21:56.739Z,29.45
2023-04-07T23:24:24.624Z,27.17
2023-04-07T23:26:52.532Z,32.25
2023-04-07T23:29:20.638Z,35.58
2023-04-07T23:31:49.858Z,32.65
2023-04-07T23:34:17.737Z,33.10
2023-04-07T23:36:45.615Z,31.60
2023-04-07T23:39:13.503Z,35.08
2023-04-07T23:41:41.309Z,35.80
2023-04-07T23:44:09.148Z,33.42
2023-04-07T23:46:37.036Z,35.50
2023-04-07T23:49:06.386Z,33.65
2023-04-07T23:51:34.525Z,32.78
2023-04-07T23:54:02.485Z,37.05
2023-04-07T23:56:30.464Z,36.65
2023-04-07T23:58:58.334Z,34.63
